Time;durP1;ratioP1;P1;durP2;ratioP2;P2;SDS_P1;SDS_P2;PMS_P1;PMS_P2;Temp;Humidity;BMP_temperature;BMP_pressure;BME280_temperature;BME280_humidity;BME280_pressure;Samples;Min_cycle;Max_cycle;Signal;HPM_P1;HPM_P2
2021/07/29 00:01:30;;;;;;;10.05;6.50;;;23.60;86.10;;;;;;4971693;28;20529;-58
2021/07/29 00:04:34;;;;;;;17.10;6.47;;;23.50;86.10;;;;;;4971755;28;20413;-58
2021/07/29 00:07:39;;;;;;;10.18;6.43;;;23.50;86.40;;;;;;4970908;28;20054;-58
2021/07/29 00:10:43;;;;;;;8.77;7.13;;;23.50;86.40;;;;;;4971504;28;20061;-58
2021/07/29 00:13:50;;;;;;;8.65;6.32;;;23.40;86.90;;;;;;4971550;28;20041;-59
2021/07/29 00:16:59;;;;;;;13.27;7.03;;;23.30;87.20;;;;;;4952139;29;20039;-58
2021/07/29 00:20:04;;;;;;;10.75;6.78;;;23.30;86.90;;;;;;4951784;28;20042;-58
2021/07/29 00:23:09;;;;;;;11.50;7.00;;;23.20;86.50;;;;;;4952194;29;20442;-58
2021/07/29 00:26:13;;;;;;;8.88;6.32;;;23.20;86.20;;;;;;4952088;29;20668;-58
2021/07/29 00:29:17;;;;;;;8.68;6.75;;;23.20;86.80;;;;;;4957517;28;20042;-59
2021/07/29 00:32:21;;;;;;;9.43;6.38;;;23.10;86.50;;;;;;4970823;28;20046;-59
2021/07/29 00:35:25;;;;;;;15.20;7.75;;;23.10;86.60;;;;;;4970650;28;20045;-59
2021/07/29 00:38:29;;;;;;;11.23;6.50;;;23.00;86.80;;;;;;4971179;28;20038;-59
2021/07/29 00:41:33;;;;;;;10.93;7.15;;;23.00;87.40;;;;;;4971143;28;20057;-57
2021/07/29 00:44:38;;;;;;;10.05;6.47;;;23.00;87.80;;;;;;4971025;28;20042;-59
2021/07/29 00:47:43;;;;;;;10.07;6.10;;;23.00;88.00;;;;;;4970945;28;20054;-59
2021/07/29 00:50:48;;;;;;;10.88;6.80;;;23.00;88.20;;;;;;4970607;28;20042;-58
2021/07/29 00:53:53;;;;;;;10.05;6.63;;;23.00;88.90;;;;;;4970808;28;20046;-59
2021/07/29 00:56:57;;;;;;;9.90;6.80;;;23.00;88.80;;;;;;4970838;28;20512;-59
2021/07/29 01:00:03;;;;;;;12.38;6.63;;;23.00;89.20;;;;;;4970831;28;20053;-60
2021/07/29 01:03:08;;;;;;;9.85;6.50;;;23.00;89.70;;;;;;4971004;28;20058;-59
2021/07/29 01:06:12;;;;;;;10.60;6.85;;;22.90;89.60;;;;;;4951903;29;20046;-58
2021/07/29 01:09:16;;;;;;;10.60;6.93;;;22.80;90.00;;;;;;4951331;29;20046;-59
2021/07/29 01:12:20;;;;;;;11.98;7.38;;;22.70;90.20;;;;;;4951516;29;20076;-59
2021/07/29 01:15:24;;;;;;;9.70;6.88;;;22.70;90.20;;;;;;4951534;28;20047;-56
2021/07/29 01:18:28;;;;;;;11.85;7.07;;;22.60;90.30;;;;;;4951789;29;20050;-58
2021/07/29 01:21:36;;;;;;;11.00;7.15;;;22.50;90.30;;;;;;4951821;29;20524;-58
2021/07/29 01:24:40;;;;;;;13.35;7.28;;;22.40;90.90;;;;;;4951580;28;20410;-59
2021/07/29 01:27:43;;;;;;;10.32;7.43;;;22.40;90.80;;;;;;4950697;29;20050;-58
2021/07/29 01:30:47;;;;;;;15.88;7.45;;;22.50;90.80;;;;;;4951331;29;20509;-58
2021/07/29 01:33:51;;;;;;;12.38;6.68;;;22.50;90.70;;;;;;4951471;28;20050;-59
2021/07/29 01:36:55;;;;;;;11.82;7.18;;;22.50;90.50;;;;;;4951845;29;20050;-58
2021/07/29 01:39:59;;;;;;;12.77;7.22;;;22.50;90.40;;;;;;4951342;29;20054;-59
2021/07/29 01:43:03;;;;;;;13.20;7.57;;;22.50;90.60;;;;;;4951555;29;20418;-58
2021/07/29 01:46:07;;;;;;;11.98;7.20;;;22.50;90.70;;;;;;4951514;29;20054;-58
2021/07/29 01:49:11;;;;;;;11.77;6.45;;;22.30;91.10;;;;;;4954271;29;20050;-59
2021/07/29 01:52:16;;;;;;;9.38;7.03;;;22.20;91.90;;;;;;4955135;29;20508;-60
2021/07/29 01:55:20;;;;;;;12.35;6.82;;;22.10;92.70;;;;;;4954866;28;20054;-56
2021/07/29 01:58:24;;;;;;;17.83;7.72;;;22.00;92.50;;;;;;4955325;29;20155;-58
2021/07/29 02:01:31;;;;;;;10.73;7.03;;;21.90;92.80;;;;;;4954550;29;20062;-59
2021/07/29 02:04:36;;;;;;;12.45;7.35;;;21.80;92.80;;;;;;4955226;28;20058;-58
2021/07/29 02:07:40;;;;;;;8.93;6.88;;;21.80;93.20;;;;;;4954699;29;20049;-59
2021/07/29 02:10:43;;;;;;;13.80;8.20;;;21.70;93.50;;;;;;4954207;29;20055;-59
2021/07/29 02:13:48;;;;;;;13.68;8.18;;;21.60;93.70;;;;;;4954795;28;20042;-58
2021/07/29 02:16:52;;;;;;;11.88;7.97;;;21.60;93.80;;;;;;4954400;29;20717;-57
2021/07/29 02:19:56;;;;;;;12.23;8.02;;;21.50;94.20;;;;;;4954301;29;20654;-59
2021/07/29 02:23:00;;;;;;;12.85;8.05;;;21.40;94.20;;;;;;4952416;29;20034;-59
2021/07/29 02:26:04;;;;;;;10.95;7.82;;;21.40;95.00;;;;;;4954252;29;20054;-58
2021/07/29 02:29:10;;;;;;;9.05;7.40;;;21.30;95.20;;;;;;4954279;29;20062;-59
2021/07/29 02:32:14;;;;;;;12.65;8.25;;;21.30;95.70;;;;;;4954518;29;20047;-57
2021/07/29 02:35:18;;;;;;;12.77;7.80;;;21.20;96.00;;;;;;4954592;28;20050;-59
2021/07/29 02:38:23;;;;;;;11.98;8.02;;;21.20;96.30;;;;;;4962030;28;20050;-60
2021/07/29 02:41:27;;;;;;;11.95;7.90;;;21.20;96.30;;;;;;4973269;28;20524;-57
2021/07/29 02:44:31;;;;;;;15.30;8.50;;;21.10;96.70;;;;;;4973550;28;20041;-59
2021/07/29 02:47:35;;;;;;;13.07;7.90;;;21.10;97.20;;;;;;4973450;28;20516;-60
2021/07/29 02:50:39;;;;;;;11.10;8.35;;;21.00;97.10;;;;;;4972963;28;20058;-59
2021/07/29 02:53:43;;;;;;;11.65;8.90;;;20.90;97.40;;;;;;4973215;28;20050;-60
2021/07/29 02:56:47;;;;;;;11.80;8.05;;;20.90;98.10;;;;;;4973193;28;20042;-59
2021/07/29 02:59:54;;;;;;;13.45;7.85;;;20.80;98.40;;;;;;4972844;28;20050;-58
2021/07/29 03:02:58;;;;;;;16.33;7.80;;;20.90;98.40;;;;;;4973346;28;20058;-59
2021/07/29 03:06:03;;;;;;;16.05;7.95;;;20.90;98.40;;;;;;4972855;28;20054;-59
2021/07/29 03:09:10;;;;;;;14.52;9.23;;;20.90;98.50;;;;;;4973126;28;20045;-60
2021/07/29 03:12:14;;;;;;;11.80;7.15;;;20.90;98.40;;;;;;4972619;28;20045;-56
2021/07/29 03:15:18;;;;;;;11.63;8.30;;;20.90;98.60;;;;;;4973015;28;20071;-58
2021/07/29 03:18:22;;;;;;;10.73;7.85;;;20.90;98.70;;;;;;4972838;28;20054;-59
2021/07/29 03:21:26;;;;;;;12.40;8.38;;;20.90;98.90;;;;;;4972435;28;20053;-59
2021/07/29 03:24:30;;;;;;;12.27;8.02;;;20.80;99.10;;;;;;4972670;28;20042;-59
2021/07/29 03:27:35;;;;;;;14.65;7.85;;;20.80;99.40;;;;;;4972724;28;20055;-59
2021/07/29 03:30:40;;;;;;;11.27;8.80;;;20.70;99.50;;;;;;4972158;28;20051;-58
2021/07/29 03:33:44;;;;;;;14.88;8.52;;;20.70;99.70;;;;;;4972411;28;20054;-56
2021/07/29 03:36:48;;;;;;;12.15;8.18;;;20.70;99.90;;;;;;4972247;28;20045;-58
2021/07/29 03:39:53;;;;;;;12.25;8.18;;;20.60;99.90;;;;;;4971945;28;20413;-58
2021/07/29 03:43:01;;;;;;;14.02;8.10;;;20.60;99.90;;;;;;4972339;28;20512;-60
2021/07/29 03:46:05;;;;;;;14.70;8.35;;;20.50;99.90;;;;;;4972028;28;20072;-56
2021/07/29 03:49:09;;;;;;;12.75;7.85;;;20.50;99.90;;;;;;4971844;28;20050;-59
2021/07/29 03:52:13;;;;;;;14.63;8.75;;;20.40;99.90;;;;;;4971564;28;20053;-60
2021/07/29 03:55:18;;;;;;;15.82;8.85;;;20.50;99.90;;;;;;5014100;22;20053;-68
2021/07/29 03:58:22;;;;;;;10.32;8.07;;;20.40;99.90;;;;;;5023537;28;20502;-69
2021/07/29 04:01:26;;;;;;;14.75;8.35;;;20.40;99.90;;;;;;5020584;28;20048;-69
2021/07/29 04:04:30;;;;;;;17.02;9.00;;;20.30;99.90;;;;;;5009462;28;20486;-69
2021/07/29 04:07:34;;;;;;;11.73;8.55;;;20.30;99.90;;;;;;5030590;28;20168;-69
2021/07/29 04:10:39;;;;;;;22.10;9.70;;;20.30;99.90;;;;;;5010728;28;20041;-69
2021/07/29 04:13:44;;;;;;;12.40;8.05;;;20.20;99.90;;;;;;5011007;28;20588;-69
2021/07/29 04:16:48;;;;;;;12.57;8.82;;;20.20;99.90;;;;;;5010972;28;20041;-68
2021/07/29 04:19:54;;;;;;;12.80;8.52;;;20.20;99.90;;;;;;4991136;28;20049;-68
2021/07/29 04:22:58;;;;;;;15.35;8.43;;;20.20;99.90;;;;;;5008524;28;20053;-69
2021/07/29 04:26:02;;;;;;;14.32;8.57;;;20.30;99.90;;;;;;5010492;28;20048;-69
2021/07/29 04:29:09;;;;;;;14.85;8.27;;;20.30;99.90;;;;;;5010780;28;20045;-68
2021/07/29 04:32:15;;;;;;;11.50;8.35;;;20.50;99.90;;;;;;5005354;28;20048;-69
2021/07/29 04:35:19;;;;;;;12.18;7.85;;;20.60;99.90;;;;;;5009868;28;20044;-68
2021/07/29 04:38:23;;;;;;;11.82;7.68;;;20.70;99.90;;;;;;5009842;28;20057;-68
2021/07/29 04:41:28;;;;;;;13.43;8.60;;;20.90;99.90;;;;;;5008223;28;20057;-69
2021/07/29 04:44:32;;;;;;;10.70;7.97;;;21.00;99.90;;;;;;5005813;28;20044;-69
2021/07/29 04:47:36;;;;;;;12.90;8.55;;;21.10;99.80;;;;;;5009018;28;20044;-69
2021/07/29 04:50:40;;;;;;;11.88;7.97;;;21.20;99.50;;;;;;5009010;28;20061;-69
2021/07/29 04:53:44;;;;;;;26.33;9.30;;;21.40;98.90;;;;;;5017224;28;20058;-69
2021/07/29 04:56:48;;;;;;;13.48;7.90;;;21.90;98.10;;;;;;5008816;28;20053;-69
2021/07/29 04:59:52;;;;;;;11.52;7.28;;;23.40;96.30;;;;;;5007808;28;20037;-69
2021/07/29 05:02:56;;;;;;;11.10;7.15;;;25.20;93.40;;;;;;5009867;28;20045;-69
2021/07/29 05:06:00;;;;;;;8.13;6.40;;;26.70;90.20;;;;;;5009355;28;20052;-68
2021/07/29 05:09:06;;;;;;;13.32;6.35;;;27.80;85.00;;;;;;5018474;28;20514;-69
2021/07/29 05:12:10;;;;;;;11.15;6.72;;;28.90;81.90;;;;;;5029296;28;20037;-69
2021/07/29 05:15:15;;;;;;;11.15;6.50;;;29.70;79.70;;;;;;5029747;28;20040;-69
2021/07/29 05:18:19;;;;;;;13.50;6.32;;;30.40;79.30;;;;;;5030237;28;20048;-68
2021/07/29 05:21:23;;;;;;;10.32;6.28;;;30.90;77.40;;;;;;5029889;28;20052;-69
2021/07/29 05:24:27;;;;;;;18.50;6.97;;;31.40;76.60;;;;;;5033671;28;20044;-69
2021/07/29 05:27:31;;;;;;;10.10;5.95;;;31.90;77.50;;;;;;5018689;28;20049;-69
2021/07/29 05:30:36;;;;;;;14.02;6.57;;;32.10;75.60;;;;;;5008607;28;20045;-69
2021/07/29 05:33:40;;;;;;;13.40;6.13;;;32.30;74.60;;;;;;5012689;28;20053;-69
2021/07/29 05:36:44;;;;;;;10.38;6.30;;;32.10;76.30;;;;;;5004554;28;20041;-68
2021/07/29 05:39:48;;;;;;;13.32;6.45;;;32.50;75.80;;;;;;5008016;28;20057;-68
2021/07/29 05:42:52;;;;;;;11.65;6.18;;;32.40;75.90;;;;;;5010335;28;20053;-69
2021/07/29 05:45:56;;;;;;;9.82;5.50;;;32.70;74.90;;;;;;5009105;28;20049;-69
2021/07/29 05:49:01;;;;;;;8.85;6.22;;;33.10;74.80;;;;;;5013259;28;20041;-69
2021/07/29 05:52:05;;;;;;;15.77;6.28;;;33.70;73.90;;;;;;5012287;28;20041;-69
2021/07/29 05:55:10;;;;;;;31.10;8.48;;;33.90;73.80;;;;;;5010482;28;20045;-69
2021/07/29 05:58:14;;;;;;;24.27;7.38;;;34.20;74.30;;;;;;4993872;28;20065;-69
2021/07/29 06:01:18;;;;;;;20.45;6.93;;;33.80;74.00;;;;;;5003281;28;20408;-69
2021/07/29 06:04:25;;;;;;;31.05;6.90;;;33.60;73.60;;;;;;5098784;27;20351;-61
2021/07/29 06:07:30;;;;;;;13.05;6.05;;;34.00;74.10;;;;;;5085769;28;20036;-62
2021/07/29 06:10:34;;;;;;;11.52;5.78;;;32.00;76.30;;;;;;5085197;28;20036;-61
2021/07/29 06:13:38;;;;;;;10.00;6.10;;;30.20;77.30;;;;;;5087008;28;20032;-61
2021/07/29 06:16:42;;;;;;;12.10;6.88;;;29.50;81.70;;;;;;5086537;28;20035;-61
2021/07/29 06:19:46;;;;;;;13.35;6.78;;;30.00;81.70;;;;;;5084309;28;20033;-60
2021/07/29 06:22:50;;;;;;;15.98;6.47;;;29.60;82.10;;;;;;5073670;28;20047;-61
2021/07/29 06:25:55;;;;;;;17.52;6.25;;;28.80;83.80;;;;;;5087145;28;20390;-62
2021/07/29 06:28:59;;;;;;;21.52;6.70;;;29.40;83.80;;;;;;5086138;28;20043;-61
2021/07/29 06:32:04;;;;;;;10.00;5.22;;;30.40;80.90;;;;;;5086510;28;20051;-62
2021/07/29 06:35:09;;;;;;;12.05;5.72;;;31.30;79.50;;;;;;5086140;28;20039;-60
2021/07/29 06:38:13;;;;;;;15.07;6.35;;;32.00;78.00;;;;;;5085240;28;20047;-60
2021/07/29 06:41:17;;;;;;;9.70;6.22;;;31.90;77.80;;;;;;5086802;28;20043;-62
2021/07/29 06:44:21;;;;;;;8.80;5.40;;;31.20;78.30;;;;;;5086341;28;20044;-61
2021/07/29 06:47:24;;;;;;;7.15;5.88;;;30.20;80.40;;;;;;5086801;28;20032;-61
2021/07/29 06:50:30;;;;;;;7.35;5.90;;;31.20;79.00;;;;;;5086345;28;20036;-60
2021/07/29 06:53:37;;;;;;;9.55;6.03;;;31.20;79.00;;;;;;5086356;28;20395;-62
2021/07/29 06:56:43;;;;;;;15.68;6.00;;;31.00;78.50;;;;;;5082945;28;20036;-62
2021/07/29 06:59:48;;;;;;;5.78;5.20;;;31.90;77.30;;;;;;5086506;28;20052;-63
2021/07/29 07:02:52;;;;;;;6.90;5.30;;;32.50;76.80;;;;;;5086068;28;20032;-63
2021/07/29 07:06:04;;;;;;;8.82;4.85;;;31.90;76.90;;;;;;5078480;28;20028;-63
2021/07/29 07:09:10;;;;;;;8.25;4.82;;;31.50;77.30;;;;;;5082734;28;20486;-61
2021/07/29 07:12:14;;;;;;;6.65;5.35;;;32.80;75.30;;;;;;5085510;28;20032;-62
2021/07/29 07:15:18;;;;;;;12.07;6.20;;;31.80;76.40;;;;;;5073052;28;20040;-63
2021/07/29 07:18:22;;;;;;;10.00;5.70;;;32.50;76.10;;;;;;5072057;28;20040;-63
2021/07/29 07:21:26;;;;;;;9.00;5.03;;;32.60;73.80;;;;;;5072237;28;20417;-62
2021/07/29 07:24:34;;;;;;;8.32;5.32;;;32.50;71.80;;;;;;5072005;28;20041;-62
2021/07/29 07:27:39;;;;;;;9.27;5.22;;;32.50;72.70;;;;;;5059722;28;20037;-62
2021/07/29 07:30:43;;;;;;;10.15;5.35;;;32.60;73.90;;;;;;5069548;28;20025;-63
2021/07/29 07:33:48;;;;;;;10.10;5.47;;;33.60;71.50;;;;;;5059865;28;20048;-62
2021/07/29 07:36:52;;;;;;;8.18;5.03;;;34.00;71.90;;;;;;5066323;28;20429;-63
2021/07/29 07:39:57;;;;;;;10.35;4.97;;;34.30;70.50;;;;;;5073625;28;20383;-60
2021/07/29 07:43:01;;;;;;;9.77;4.65;;;34.00;72.00;;;;;;5069017;28;20039;-63
2021/07/29 07:46:05;;;;;;;14.20;5.00;;;35.90;69.90;;;;;;5071334;28;20037;-61
2021/07/29 07:49:10;;;;;;;7.35;4.63;;;37.10;68.60;;;;;;5071985;28;20506;-62
2021/07/29 07:52:14;;;;;;;11.35;4.88;;;37.40;68.00;;;;;;5071540;28;20037;-61
2021/07/29 07:55:19;;;;;;;6.68;4.63;;;37.40;67.70;;;;;;5071744;28;20044;-63
2021/07/29 07:58:24;;;;;;;16.42;5.13;;;35.80;68.30;;;;;;5069969;28;20044;-62
2021/07/29 08:01:28;;;;;;;6.85;4.95;;;37.60;67.90;;;;;;5069454;28;20044;-63
2021/07/29 08:04:33;;;;;;;5.28;4.05;;;38.90;65.40;;;;;;5060742;28;20419;-62
2021/07/29 08:07:37;;;;;;;6.65;4.15;;;39.50;64.10;;;;;;5070969;28;20028;-62
2021/07/29 08:10:42;;;;;;;7.05;4.53;;;39.20;65.10;;;;;;5062861;28;20037;-62
2021/07/29 08:13:46;;;;;;;7.38;3.80;;;39.30;63.50;;;;;;5054724;28;20029;-62
2021/07/29 08:16:49;;;;;;;5.10;4.03;;;39.10;63.90;;;;;;5054988;28;20032;-62
2021/07/29 08:21:39;;;;;;;6.63;4.18;;;39.00;60.80;;;;;;5045505;28;21085;-61
2021/07/29 08:24:43;;;;;;;8.63;4.15;;;38.90;61.80;;;;;;5041507;28;20045;-61
2021/07/29 08:27:48;;;;;;;7.10;4.28;;;37.70;63.10;;;;;;5042366;28;20033;-61
2021/07/29 08:30:52;;;;;;;8.55;3.90;;;39.70;61.80;;;;;;5041925;28;20029;-62
2021/07/29 08:33:56;;;;;;;10.98;4.47;;;41.30;60.20;;;;;;5041282;28;20037;-60
2021/07/29 08:37:01;;;;;;;11.73;4.93;;;38.90;58.70;;;;;;5039829;28;20038;-62
2021/07/29 08:40:06;;;;;;;4.95;4.45;;;37.10;62.30;;;;;;5046344;28;20045;-61
2021/07/29 08:43:10;;;;;;;6.93;3.97;;;37.90;61.10;;;;;;5032018;28;20373;-63
2021/07/29 08:46:19;;;;;;;8.05;4.03;;;39.80;59.60;;;;;;5033805;28;20033;-61
2021/07/29 08:49:26;;;;;;;8.38;4.50;;;41.50;57.00;;;;;;5047105;28;20037;-65
2021/07/29 08:52:31;;;;;;;9.45;4.45;;;40.20;58.20;;;;;;5044300;28;20033;-60
2021/07/29 08:55:36;;;;;;;5.18;3.92;;;37.80;60.70;;;;;;5038670;28;20040;-62
2021/07/29 08:58:42;;;;;;;7.97;4.32;;;40.20;58.50;;;;;;5038827;28;20042;-61
2021/07/29 09:01:55;;;;;;;5.55;4.53;;;39.00;59.70;;;;;;5037469;28;20037;-62
2021/07/29 09:05:09;;;;;;;4.80;4.30;;;37.30;60.30;;;;;;5035794;28;20041;-63
2021/07/29 09:08:14;;;;;;;6.85;4.57;;;36.10;60.00;;;;;;5044682;28;20033;-63
2021/07/29 09:11:34;;;;;;;4.95;4.10;;;38.20;59.80;;;;;;5034468;28;20037;-62
2021/07/29 09:14:38;;;;;;;11.30;5.00;;;40.40;58.60;;;;;;5039280;28;20045;-62
2021/07/29 09:17:45;;;;;;;5.97;4.18;;;40.40;57.40;;;;;;5044277;28;20048;-61
2021/07/29 09:21:09;;;;;;;10.52;4.35;;;42.70;56.40;;;;;;5038044;28;20033;-62
2021/07/29 09:24:13;;;;;;;8.52;4.05;;;39.00;57.40;;;;;;5042470;28;20052;-62
2021/07/29 09:27:18;;;;;;;7.80;4.20;;;39.80;57.30;;;;;;5038467;28;20045;-61
2021/07/29 09:30:25;;;;;;;9.95;3.95;;;42.30;56.00;;;;;;5033354;28;20041;-62
2021/07/29 09:33:29;;;;;;;5.20;4.25;;;38.70;56.80;;;;;;5028249;28;20041;-63
2021/07/29 09:36:34;;;;;;;4.97;4.18;;;42.00;55.20;;;;;;5025941;28;20384;-63
2021/07/29 09:39:38;;;;;;;7.70;4.38;;;43.00;52.90;;;;;;5029406;28;20041;-63
2021/07/29 09:42:42;;;;;;;11.60;3.92;;;42.50;54.90;;;;;;5021414;28;20045;-60
2021/07/29 09:45:49;;;;;;;5.68;3.47;;;43.60;54.40;;;;;;5020989;28;20519;-63
2021/07/29 09:48:53;;;;;;;8.35;4.03;;;44.20;54.40;;;;;;5026456;28;20042;-65
2021/07/29 09:51:59;;;;;;;33.15;5.30;;;41.80;54.80;;;;;;5027852;28;20041;-66
2021/07/29 09:55:06;;;;;;;9.88;3.85;;;42.30;55.60;;;;;;5026934;28;20065;-63
2021/07/29 09:58:10;;;;;;;10.43;4.13;;;44.50;54.80;;;;;;5040304;22;20054;-60
2021/07/29 10:01:18;;;;;;;4.55;3.47;;;43.80;54.70;;;;;;5025668;28;20411;-60
2021/07/29 10:04:30;;;;;;;6.75;3.70;;;44.30;54.30;;;;;;5011632;28;20386;-60
2021/07/29 10:07:40;;;;;;;6.65;3.70;;;44.60;54.10;;;;;;5029007;28;20037;-59
2021/07/29 10:10:45;;;;;;;5.45;3.75;;;44.30;54.30;;;;;;5031231;28;20042;-61
2021/07/29 10:13:51;;;;;;;3.92;3.35;;;43.70;54.10;;;;;;5031379;28;20697;-61
2021/07/29 10:16:55;;;;;;;8.65;3.97;;;45.10;53.90;;;;;;5017315;28;20053;-61
2021/07/29 10:20:16;;;;;;;7.40;3.85;;;45.60;53.10;;;;;;5044904;28;20515;-62
2021/07/29 10:23:22;;;;;;;7.32;4.15;;;43.30;53.60;;;;;;5010430;28;20039;-61
2021/07/29 10:26:28;;;;;;;8.48;3.60;;;42.60;55.10;;;;;;5028954;28;20026;-60
2021/07/29 10:29:32;;;;;;;4.88;3.58;;;43.20;54.50;;;;;;5029488;28;20725;-61
2021/07/29 10:32:51;;;;;;;8.82;3.78;;;44.40;53.10;;;;;;5023276;28;20038;-61
2021/07/29 10:35:56;;;;;;;11.07;3.85;;;40.40;54.10;;;;;;5031140;28;20029;-61
2021/07/29 10:39:05;;;;;;;10.98;4.40;;;42.80;53.70;;;;;;5028645;28;20044;-60
2021/07/29 10:42:27;;;;;;;7.45;3.53;;;40.30;55.50;;;;;;5026873;28;20048;-59
2021/07/29 10:45:49;;;;;;;6.90;3.80;;;42.60;53.90;;;;;;5026351;28;20037;-61
2021/07/29 10:49:13;;;;;;;9.27;3.72;;;44.10;53.10;;;;;;5029571;28;20034;-59
2021/07/29 10:52:17;;;;;;;6.75;3.97;;;41.10;53.30;;;;;;5022427;28;20034;-60
2021/07/29 10:55:22;;;;;;;6.68;4.30;;;40.10;53.90;;;;;;5025989;28;20389;-57
2021/07/29 10:58:26;;;;;;;7.22;4.22;;;37.50;57.40;;;;;;5030716;28;20041;-59
2021/07/29 11:01:51;;;;;;;6.43;4.07;;;38.10;56.60;;;;;;5030464;28;20045;-56
2021/07/29 11:05:19;;;;;;;6.28;3.40;;;41.80;54.30;;;;;;5029268;28;20041;-59
2021/07/29 11:08:27;;;;;;;5.07;3.55;;;45.70;52.10;;;;;;5015039;28;20464;-61
2021/07/29 11:11:37;;;;;;;11.30;3.70;;;48.10;50.90;;;;;;5023449;28;20046;-61
2021/07/29 11:14:41;;;;;;;6.63;3.67;;;42.60;51.10;;;;;;5014799;28;20047;-60
2021/07/29 11:17:45;;;;;;;4.30;3.75;;;43.20;52.30;;;;;;5011937;28;20402;-56
2021/07/29 11:20:51;;;;;;;6.50;3.53;;;44.80;51.90;;;;;;5012484;28;20041;-59
2021/07/29 11:23:55;;;;;;;5.90;3.90;;;45.20;51.50;;;;;;5012651;28;20033;-58
2021/07/29 11:27:02;;;;;;;6.65;3.50;;;44.60;51.10;;;;;;5014036;28;20500;-60
2021/07/29 11:30:07;;;;;;;10.27;3.58;;;46.10;50.60;;;;;;5021275;28;20044;-60
2021/07/29 11:33:46;;;;;;;9.98;3.63;;;44.20;51.00;;;;;;5018426;28;20045;-61
2021/07/29 11:36:54;;;;;;;6.35;3.67;;;43.20;52.20;;;;;;5015634;28;20511;-59
2021/07/29 11:39:58;;;;;;;5.10;4.00;;;43.90;52.30;;;;;;5013372;28;20048;-59
2021/07/29 11:43:03;;;;;;;5.65;3.90;;;44.10;52.00;;;;;;5023391;28;20038;-59
2021/07/29 11:46:10;;;;;;;6.57;3.70;;;45.10;51.80;;;;;;5016856;28;20038;-60
2021/07/29 11:49:14;;;;;;;4.63;3.70;;;46.80;51.10;;;;;;5016469;28;20034;-59
2021/07/29 11:52:20;;;;;;;6.70;4.25;;;43.10;52.60;;;;;;5018999;28;20045;-58
2021/07/29 11:55:24;;;;;;;8.90;4.00;;;42.20;53.50;;;;;;5018560;28;20060;-59
2021/07/29 11:58:28;;;;;;;9.73;3.50;;;43.10;53.60;;;;;;5022429;28;20423;-60
2021/07/29 12:01:32;;;;;;;5.38;3.70;;;45.10;52.10;;;;;;5018625;28;20043;-59
2021/07/29 12:04:42;;;;;;;6.18;3.95;;;42.50;52.10;;;;;;5021199;28;20034;-58
2021/07/29 12:07:47;;;;;;;6.22;3.83;;;44.80;52.00;;;;;;5018129;28;20045;-56
2021/07/29 12:10:56;;;;;;;8.18;4.05;;;43.30;52.80;;;;;;5018643;28;20451;-59
2021/07/29 12:14:03;;;;;;;7.32;3.97;;;44.30;52.30;;;;;;5019039;28;20052;-61
2021/07/29 12:17:19;;;;;;;10.32;4.05;;;40.90;55.00;;;;;;5015708;28;20444;-59
2021/07/29 12:20:25;;;;;;;9.75;4.22;;;38.80;55.90;;;;;;5017431;28;20396;-61
2021/07/29 12:23:30;;;;;;;12.80;4.20;;;38.00;57.80;;;;;;5014678;28;20052;-59
2021/07/29 12:26:37;;;;;;;5.55;3.88;;;40.70;55.40;;;;;;5013866;28;20044;-61
2021/07/29 12:29:44;;;;;;;7.78;4.13;;;43.00;52.90;;;;;;5015103;28;20049;-62
2021/07/29 12:33:08;;;;;;;5.47;4.13;;;43.70;52.50;;;;;;5019767;28;20419;-61
2021/07/29 12:36:12;;;;;;;7.18;3.47;;;44.20;52.10;;;;;;5014265;28;20037;-58
2021/07/29 12:39:19;;;;;;;8.20;3.90;;;44.50;51.30;;;;;;5022867;28;20036;-60
2021/07/29 12:42:24;;;;;;;7.15;3.75;;;43.50;51.70;;;;;;5018544;28;20042;-61
2021/07/29 12:45:56;;;;;;;7.72;3.75;;;43.70;52.20;;;;;;5013425;28;20123;-60
2021/07/29 12:49:00;;;;;;;6.30;4.25;;;43.20;52.70;;;;;;5018101;28;20506;-61
2021/07/29 12:52:23;;;;;;;7.50;3.40;;;44.00;52.20;;;;;;5021349;28;20037;-60
2021/07/29 12:55:37;;;;;;;7.80;3.67;;;44.40;51.50;;;;;;5018532;28;20423;-61
2021/07/29 12:58:43;;;;;;;7.15;3.72;;;44.00;50.70;;;;;;5015766;28;20388;-61
2021/07/29 13:01:48;;;;;;;13.23;4.15;;;43.70;50.70;;;;;;5017446;28;20050;-60
2021/07/29 13:04:54;;;;;;;6.35;3.50;;;41.60;51.30;;;;;;5016509;28;20037;-60
2021/07/29 13:07:58;;;;;;;4.38;3.20;;;39.60;51.60;;;;;;5020717;28;20041;-59
2021/07/29 13:11:07;;;;;;;5.32;3.20;;;38.40;51.50;;;;;;5022172;28;20053;-60
2021/07/29 13:14:12;;;;;;;4.78;3.55;;;39.50;51.70;;;;;;5026063;28;20064;-59
2021/07/29 13:17:16;;;;;;;5.22;3.63;;;38.70;51.30;;;;;;5017666;28;20045;-60
2021/07/29 13:20:21;;;;;;;5.20;3.50;;;36.80;52.40;;;;;;5021293;28;20041;-60
2021/07/29 13:23:26;;;;;;;4.93;3.22;;;36.60;53.20;;;;;;5016697;28;20022;-60
2021/07/29 13:26:30;;;;;;;5.90;3.50;;;37.90;53.50;;;;;;5024800;28;20048;-60
2021/07/29 13:29:34;;;;;;;5.72;3.38;;;39.10;52.10;;;;;;5024785;28;20048;-59
2021/07/29 13:32:39;;;;;;;4.00;3.58;;;39.40;51.70;;;;;;5021181;28;20059;-60
2021/07/29 13:35:44;;;;;;;5.20;3.38;;;39.30;53.00;;;;;;5033520;28;20041;-60
2021/07/29 13:38:50;;;;;;;5.05;3.38;;;39.70;52.60;;;;;;5016912;28;20033;-60
2021/07/29 13:41:54;;;;;;;9.85;3.85;;;40.10;52.00;;;;;;5030002;28;20049;-60
2021/07/29 13:45:16;;;;;;;4.47;3.70;;;40.30;52.50;;;;;;5030747;28;20049;-61
2021/07/29 13:48:21;;;;;;;5.25;3.60;;;40.10;52.80;;;;;;5031132;28;20040;-60
2021/07/29 13:51:25;;;;;;;12.63;4.10;;;40.30;53.10;;;;;;5031608;28;20041;-60
2021/07/29 13:54:29;;;;;;;7.35;4.10;;;40.20;53.40;;;;;;5031785;28;20052;-59
2021/07/29 13:57:33;;;;;;;7.32;3.83;;;39.70;53.80;;;;;;5031357;28;20052;-60
2021/07/29 14:00:36;;;;;;;5.30;3.45;;;38.80;55.10;;;;;;5031654;28;20507;-59
2021/07/29 14:03:40;;;;;;;8.15;4.28;;;38.70;54.50;;;;;;5031829;28;20040;-60
2021/07/29 14:06:44;;;;;;;4.25;3.72;;;37.60;54.10;;;;;;5030829;28;20687;-61
2021/07/29 14:09:49;;;;;;;4.90;3.72;;;37.20;56.50;;;;;;5031188;28;20045;-60
2021/07/29 14:12:53;;;;;;;6.85;3.38;;;37.60;56.20;;;;;;5028847;28;20044;-60
2021/07/29 14:15:58;;;;;;;7.05;3.80;;;37.40;55.40;;;;;;5021101;28;20045;-61
2021/07/29 14:19:05;;;;;;;6.15;4.18;;;36.20;55.40;;;;;;5025903;28;20044;-58
2021/07/29 14:25:17;;;;;;;8.10;4.00;;;36.30;55.80;;;;;;5027323;28;20056;-59
2021/07/29 14:28:26;;;;;;;6.50;3.97;;;36.60;56.30;;;;;;5031366;28;20033;-59
2021/07/29 14:31:31;;;;;;;4.90;3.88;;;37.10;57.00;;;;;;5031662;28;20427;-60
2021/07/29 14:34:36;;;;;;;14.48;3.90;;;37.40;56.40;;;;;;5029916;28;20046;-59
2021/07/29 14:37:41;;;;;;;10.80;3.80;;;37.60;56.80;;;;;;5030802;28;20411;-61
2021/07/29 14:40:45;;;;;;;12.95;4.13;;;37.60;56.90;;;;;;5025652;28;20057;-57
2021/07/29 14:43:49;;;;;;;7.93;3.92;;;37.90;57.20;;;;;;5019383;28;20048;-60
2021/07/29 14:50:17;;;;;;;15.40;4.00;;;38.20;57.00;;;;;;5024579;28;20040;-60
2021/07/29 14:53:21;;;;;;;7.78;3.78;;;38.10;56.10;;;;;;5021981;28;20048;-59
2021/07/29 14:56:32;;;;;;;12.82;4.45;;;36.20;56.60;;;;;;5031058;28;20515;-59
2021/07/29 16:07:31;;;;;;;8.52;4.32;;;35.30;61.90;;;;;;5018015;28;20447;-63
2021/07/29 16:10:35;;;;;;;8.45;4.28;;;35.30;62.30;;;;;;5028912;28;20048;-62
2021/07/29 16:13:42;;;;;;;9.15;4.43;;;35.10;61.30;;;;;;5029570;28;20041;-63
2021/07/29 16:16:47;;;;;;;7.63;3.83;;;34.90;61.40;;;;;;5009576;28;20045;-63
2021/07/29 16:19:52;;;;;;;9.77;3.85;;;34.90;60.70;;;;;;5004129;28;20037;-63
2021/07/29 16:22:56;;;;;;;5.38;3.88;;;34.80;60.90;;;;;;5004809;28;20038;-63
2021/07/29 16:26:00;;;;;;;12.60;4.03;;;34.70;59.90;;;;;;5009757;28;20038;-63
2021/07/29 16:29:04;;;;;;;4.35;3.95;;;34.70;60.90;;;;;;5009381;28;20045;-63
2021/07/29 16:32:13;;;;;;;5.13;3.83;;;34.50;59.90;;;;;;5009469;28;20057;-63
2021/07/29 16:35:17;;;;;;;5.35;4.28;;;34.40;60.10;;;;;;5009461;28;20046;-63
2021/07/29 16:38:21;;;;;;;7.18;3.95;;;34.40;59.80;;;;;;5009016;28;20045;-63
2021/07/29 16:41:27;;;;;;;5.97;3.95;;;34.20;60.20;;;;;;5008885;28;20051;-63
2021/07/29 16:44:35;;;;;;;4.45;3.30;;;34.10;60.90;;;;;;5013608;28;20038;-63
2021/07/29 16:47:38;;;;;;;8.98;4.25;;;34.00;61.40;;;;;;5013530;28;20022;-63
2021/07/29 16:50:43;;;;;;;7.13;3.60;;;34.00;61.40;;;;;;5013407;28;20061;-62
2021/07/29 16:53:47;;;;;;;4.93;3.30;;;33.90;61.50;;;;;;5013345;28;20037;-63
2021/07/29 16:56:52;;;;;;;4.50;3.60;;;33.80;60.60;;;;;;5023966;28;20041;-63
2021/07/29 16:59:58;;;;;;;5.13;3.30;;;33.80;60.40;;;;;;5013034;28;20050;-63
2021/07/29 17:03:03;;;;;;;5.43;3.30;;;33.70;60.50;;;;;;5013178;28;20042;-63
2021/07/29 17:06:07;;;;;;;5.50;3.70;;;33.60;60.50;;;;;;5013004;28;20038;-63
2021/07/29 17:09:12;;;;;;;6.78;3.35;;;33.40;59.90;;;;;;5012868;28;20049;-61
2021/07/29 17:12:17;;;;;;;5.30;3.33;;;33.30;60.00;;;;;;5012921;28;20053;-63
2021/07/29 17:15:23;;;;;;;6.50;3.28;;;33.20;60.70;;;;;;5012845;28;20041;-63
2021/07/29 17:18:28;;;;;;;6.60;3.40;;;33.20;61.00;;;;;;5012562;28;20045;-63